Warning: Javascript must be enabled to use all the features on this page!


Page Loading - Please Wait...

Click to hideNews Bulletins

Peak Streamflow for the Nation

USGS 03325000 WABASH RIVER AT WABASH, IN

Wabash County, Indiana
Hydrologic Unit Code 05120101
Latitude  40°47'27", Longitude  85°49'13" NAD27
Drainage area 1,768  square miles
Gage datum 642.15 feet above NAVD88
Output formats
Table
Graph
Tab-separated file
peakfq (watstore) format
Reselect output format
Water
Year
Date Gage
Height
(feet)
Stream-
flow
(cfs)
1913 1913-03-26 28.70 90,0007
1924 1924-03-29 21.20 28,500
1925 1925-03-14 22.00 33,000
1926 1926-04-08 20.60 25,700
1927 1927-03-20 20.30 24,500
1928 1927-12-01 19.80 22,600
1929 1929-01-19 18.00 17,200
1930 1930-01-15 22.80 38,400
1931 1931-04-04 11.20 7,730
1932 1932-01-17 17.60 16,800
1933 1933-03-20 20.00 23,300
1934 1934-03-29 10.60 6,770
1935 1935-05-03 16.60 15,000
1936 1936-02-27 22.40 35,600
1937 1937-01-16 21.30 29,000
1938 1938-04-09 20.80 26,500
1939 1939-03-13 21.10 28,000
1940 1940-03-04 18.10 17,500
1941 1941-06-14 11.81 7,660
1942 1942-04-11 15.97 13,200
1943 1943-05-18 24.22 49,600
1944 1944-04-12 20.54 25,300
1945 1945-04-01 17.48 16,100
1946 1945-10-02 15.30 12,000
1947 1947-06-03 19.60 21,900
1948 1948-03-22 18.71 19,100
1949 1949-01-19 20.15 24,100
1950 1950-01-04 23.00 39,800
1951 1950-12-04 19.55 21,900
1952 1952-03-12 19.15 20,600
1953 1953-03-05 17.53 16,100
1954 1954-04-12 11.44 6,900
1955 1955-03-04 20.27 24,500
1956 1956-02-25 18.58 18,800
1957 1957-04-06 21.38 29,500
1958 1958-06-13 22.46 36,300
1959 1959-02-11 24.44 45,300
1960 1960-02-11 16.85 14,600
1961 1961-04-26 19.45 20,200
1962 1962-01-27 17.70 16,400
1963 1963-03-08 18.44 17,800
1964 1964-04-22 19.56 20,800
1965 1965-02-11 15.70 13,000
1966 1966-02-12 10.61 6,270
1967 1966-12-09 17.44 15,700
1968 1967-12-22 18.26 17,3006
1969 1969-01-29 15.71 12,7006
1970 1970-02-03 12.36 8,0706
1971 1971-02-26 12.53 8,2806
1972 1972-04-13 13.83 9,9806
1973 1972-11-14 12.95 8,7906
1974 1974-01-21 14.74 11,2006
1975 1975-02-23 12.98 8,8206
1976 1976-02-17 14.08 10,3006
1977 1977-03-04 13.01 8,9106
1978 1978-03-21 15.96 13,1006
1979 1979-03-04 13.86 10,2006
1980 1980-06-02 13.29 9,3006
1981 1981-06-14 15.75 12,9006
1982 1982-03-13 17.25 15,2006
1983 1983-05-02 12.323 12,9006
1984 1984-02-13 14.70 11,5006
1985 1985-02-23 16.51 14,5006
1986 1985-12-11 13.73 10,4006
1987 1987-02-05 10.21 5,7006
1988 1988-04-07 15.85 13,5006
1989 1989-06-04 17.99 17,5006
1990 1990-02-22 17.23 16,0006
1991 1990-12-30 17.27 16,1006
1992 1992-04-18 10.87 6,5806
1993 1993-01-04 15.95 13,6006
1994 1994-04-12 15.45 12,8006
1995 1995-04-10 12.28 8,5706
1996 1996-07-19 18.47 18,8006
1997 1997-02-27 16.50 14,6006
1998 1998-07-22 18.98 20,0006
1999 1999-01-23 16.20 12,1006
2000 2000-06-25 14.13 9,2406
2001 2001-02-10 13.75 8,8506
2002 2002-02-01 13.13 8,3106
2003 2003-07-07 16.58 14,8006
2004 2004-01-05 13.41 9,7006
2005 2005-01-12 16.20 14,1006
2006 2006-04-17 14.05 10,6006
2007 2007-01-15 15.50 12,8006
2008 2008-02-06 16.37 14,4006
2009 2009-02-12 17.07 15,7006
2010 2010-05-22 13.51 9,8106
2011 2011-05-15 17.71 17,1006
2012 2011-12-10 16.39 14,9006
2013 2013-04-19 20.67 25,7006
2014 2014-04-03 15.06 12,9006
2015 2015-06-16 19.72 22,5006
2016 2015-12-29 14.01 11,4006
2017 2017-05-21 15.13 13,0006
2018 2017-11-18 14.44 12,0006
2019 2019-05-01 14.54 12,1006
2020 2020-01-12 14.06 11,6006
2021 2021-02-28 14.12 11,6006
?
  Peak Gage-Height Qualification Codes.
?
  Peak Streamflow Qualification Codes.